sensor_id;sensor_type;location;lat;lon;timestamp;P1;durP1;ratioP1;P2;durP2;ratioP2
7969;SDS011;4030;52.362;9.206;2023-04-25T00:01:25;4.57;;;2.50;;
7969;SDS011;4030;52.362;9.206;2023-04-25T00:03:51;4.30;;;2.50;;
7969;SDS011;4030;52.362;9.206;2023-04-25T00:06:17;5.28;;;2.58;;
7969;SDS011;4030;52.362;9.206;2023-04-25T00:08:43;4.25;;;2.47;;
7969;SDS011;4030;52.362;9.206;2023-04-25T00:11:09;6.32;;;2.80;;
7969;SDS011;4030;52.362;9.206;2023-04-25T00:13:35;4.63;;;2.28;;
7969;SDS011;4030;52.362;9.206;2023-04-25T00:16:01;4.13;;;2.33;;
7969;SDS011;4030;52.362;9.206;2023-04-25T00:18:27;4.53;;;2.70;;
7969;SDS011;4030;52.362;9.206;2023-04-25T00:20:58;4.93;;;2.50;;
7969;SDS011;4030;52.362;9.206;2023-04-25T00:23:24;5.68;;;2.72;;
7969;SDS011;4030;52.362;9.206;2023-04-25T00:25:49;5.97;;;3.00;;
7969;SDS011;4030;52.362;9.206;2023-04-25T00:28:15;5.50;;;2.75;;
7969;SDS011;4030;52.362;9.206;2023-04-25T00:30:42;6.05;;;2.80;;
7969;SDS011;4030;52.362;9.206;2023-04-25T00:33:08;4.82;;;2.20;;
7969;SDS011;4030;52.362;9.206;2023-04-25T00:35:34;5.72;;;2.50;;
7969;SDS011;4030;52.362;9.206;2023-04-25T00:38:00;5.53;;;2.38;;
7969;SDS011;4030;52.362;9.206;2023-04-25T00:40:26;5.93;;;2.70;;
7969;SDS011;4030;52.362;9.206;2023-04-25T00:42:52;5.93;;;2.90;;
7969;SDS011;4030;52.362;9.206;2023-04-25T00:45:18;4.82;;;2.90;;
7969;SDS011;4030;52.362;9.206;2023-04-25T00:47:45;6.03;;;2.38;;
7969;SDS011;4030;52.362;9.206;2023-04-25T00:50:12;4.85;;;2.63;;
7969;SDS011;4030;52.362;9.206;2023-04-25T00:52:38;4.93;;;2.60;;
7969;SDS011;4030;52.362;9.206;2023-04-25T00:55:08;4.38;;;2.40;;
7969;SDS011;4030;52.362;9.206;2023-04-25T00:57:35;6.03;;;2.67;;
7969;SDS011;4030;52.362;9.206;2023-04-25T01:00:01;6.88;;;2.67;;
7969;SDS011;4030;52.362;9.206;2023-04-25T01:02:28;4.00;;;2.67;;
7969;SDS011;4030;52.362;9.206;2023-04-25T01:04:54;6.32;;;2.88;;
7969;SDS011;4030;52.362;9.206;2023-04-25T01:07:20;4.75;;;2.50;;
7969;SDS011;4030;52.362;9.206;2023-04-25T01:09:46;6.20;;;2.72;;
7969;SDS011;4030;52.362;9.206;2023-04-25T01:12:12;5.47;;;2.80;;
7969;SDS011;4030;52.362;9.206;2023-04-25T01:14:39;6.50;;;2.95;;
7969;SDS011;4030;52.362;9.206;2023-04-25T01:17:05;6.13;;;2.88;;
7969;SDS011;4030;52.362;9.206;2023-04-25T01:19:32;5.97;;;2.85;;
7969;SDS011;4030;52.362;9.206;2023-04-25T01:21:58;4.93;;;2.67;;
7969;SDS011;4030;52.362;9.206;2023-04-25T01:24:23;6.07;;;2.90;;
7969;SDS011;4030;52.362;9.206;2023-04-25T01:26:49;6.88;;;3.10;;
7969;SDS011;4030;52.362;9.206;2023-04-25T01:29:19;5.30;;;3.00;;
7969;SDS011;4030;52.362;9.206;2023-04-25T01:31:46;6.30;;;3.00;;
7969;SDS011;4030;52.362;9.206;2023-04-25T01:34:12;6.18;;;2.42;;
7969;SDS011;4030;52.362;9.206;2023-04-25T01:36:38;4.85;;;2.90;;
7969;SDS011;4030;52.362;9.206;2023-04-25T01:39:05;4.70;;;2.60;;
7969;SDS011;4030;52.362;9.206;2023-04-25T01:41:31;4.82;;;2.55;;
7969;SDS011;4030;52.362;9.206;2023-04-25T01:43:59;6.32;;;2.70;;
7969;SDS011;4030;52.362;9.206;2023-04-25T01:46:25;4.68;;;2.55;;
7969;SDS011;4030;52.362;9.206;2023-04-25T01:48:51;5.47;;;2.80;;
7969;SDS011;4030;52.362;9.206;2023-04-25T01:51:17;4.45;;;2.28;;
7969;SDS011;4030;52.362;9.206;2023-04-25T01:53:43;5.22;;;2.45;;
7969;SDS011;4030;52.362;9.206;2023-04-25T01:56:10;5.03;;;2.60;;
7969;SDS011;4030;52.362;9.206;2023-04-25T01:58:35;5.60;;;2.55;;
7969;SDS011;4030;52.362;9.206;2023-04-25T02:01:02;5.32;;;2.50;;
7969;SDS011;4030;52.362;9.206;2023-04-25T02:03:28;5.53;;;2.80;;
7969;SDS011;4030;52.362;9.206;2023-04-25T02:05:55;5.20;;;2.55;;
7969;SDS011;4030;52.362;9.206;2023-04-25T02:08:21;4.40;;;2.47;;
7969;SDS011;4030;52.362;9.206;2023-04-25T02:10:47;4.65;;;2.25;;
7969;SDS011;4030;52.362;9.206;2023-04-25T02:13:12;5.82;;;2.30;;
7969;SDS011;4030;52.362;9.206;2023-04-25T02:15:38;5.15;;;2.40;;
7969;SDS011;4030;52.362;9.206;2023-04-25T02:18:04;4.95;;;2.58;;
7969;SDS011;4030;52.362;9.206;2023-04-25T02:20:31;6.43;;;2.30;;
7969;SDS011;4030;52.362;9.206;2023-04-25T02:22:57;3.92;;;2.42;;
7969;SDS011;4030;52.362;9.206;2023-04-25T02:25:23;4.00;;;2.17;;
7969;SDS011;4030;52.362;9.206;2023-04-25T02:27:48;3.33;;;2.05;;
7969;SDS011;4030;52.362;9.206;2023-04-25T02:30:16;5.25;;;2.28;;
7969;SDS011;4030;52.362;9.206;2023-04-25T02:32:42;3.15;;;2.10;;
7969;SDS011;4030;52.362;9.206;2023-04-25T02:35:08;5.30;;;2.42;;
7969;SDS011;4030;52.362;9.206;2023-04-25T02:37:34;4.38;;;2.20;;
7969;SDS011;4030;52.362;9.206;2023-04-25T02:40:02;4.05;;;1.70;;
7969;SDS011;4030;52.362;9.206;2023-04-25T02:42:29;4.32;;;1.95;;
7969;SDS011;4030;52.362;9.206;2023-04-25T02:44:55;4.97;;;2.33;;
7969;SDS011;4030;52.362;9.206;2023-04-25T02:47:21;4.20;;;2.25;;
7969;SDS011;4030;52.362;9.206;2023-04-25T02:49:47;4.20;;;2.13;;
7969;SDS011;4030;52.362;9.206;2023-04-25T02:52:13;5.53;;;2.15;;
7969;SDS011;4030;52.362;9.206;2023-04-25T02:54:39;6.20;;;2.50;;
7969;SDS011;4030;52.362;9.206;2023-04-25T02:57:05;5.95;;;2.00;;
7969;SDS011;4030;52.362;9.206;2023-04-25T02:59:32;4.55;;;1.95;;
7969;SDS011;4030;52.362;9.206;2023-04-25T03:01:58;6.50;;;2.08;;
7969;SDS011;4030;52.362;9.206;2023-04-25T03:04:24;4.88;;;2.13;;
7969;SDS011;4030;52.362;9.206;2023-04-25T03:06:50;4.25;;;2.13;;
7969;SDS011;4030;52.362;9.206;2023-04-25T03:09:16;5.90;;;2.40;;
7969;SDS011;4030;52.362;9.206;2023-04-25T03:11:42;7.78;;;2.78;;
7969;SDS011;4030;52.362;9.206;2023-04-25T03:14:09;4.25;;;2.40;;
7969;SDS011;4030;52.362;9.206;2023-04-25T03:16:35;5.70;;;2.17;;
7969;SDS011;4030;52.362;9.206;2023-04-25T03:19:01;7.20;;;2.60;;
7969;SDS011;4030;52.362;9.206;2023-04-25T03:21:28;5.50;;;2.17;;
7969;SDS011;4030;52.362;9.206;2023-04-25T03:23:56;4.65;;;2.08;;
7969;SDS011;4030;52.362;9.206;2023-04-25T03:26:22;4.03;;;1.92;;
7969;SDS011;4030;52.362;9.206;2023-04-25T03:28:48;4.93;;;2.50;;
7969;SDS011;4030;52.362;9.206;2023-04-25T03:31:14;4.53;;;2.28;;
7969;SDS011;4030;52.362;9.206;2023-04-25T03:33:40;5.63;;;2.42;;
7969;SDS011;4030;52.362;9.206;2023-04-25T03:36:06;5.85;;;2.35;;
7969;SDS011;4030;52.362;9.206;2023-04-25T03:38:32;5.65;;;2.22;;
7969;SDS011;4030;52.362;9.206;2023-04-25T03:40:58;6.10;;;2.38;;
7969;SDS011;4030;52.362;9.206;2023-04-25T03:43:25;6.10;;;2.25;;
7969;SDS011;4030;52.362;9.206;2023-04-25T03:45:51;5.20;;;2.28;;
7969;SDS011;4030;52.362;9.206;2023-04-25T03:48:16;7.07;;;2.42;;
7969;SDS011;4030;52.362;9.206;2023-04-25T03:50:42;7.30;;;3.05;;
7969;SDS011;4030;52.362;9.206;2023-04-25T03:53:09;6.20;;;2.30;;
7969;SDS011;4030;52.362;9.206;2023-04-25T03:55:35;7.03;;;2.65;;
7969;SDS011;4030;52.362;9.206;2023-04-25T03:58:01;5.85;;;2.30;;
7969;SDS011;4030;52.362;9.206;2023-04-25T04:00:27;7.03;;;2.33;;
7969;SDS011;4030;52.362;9.206;2023-04-25T04:02:53;7.50;;;2.80;;
7969;SDS011;4030;52.362;9.206;2023-04-25T04:05:19;5.88;;;2.35;;
7969;SDS011;4030;52.362;9.206;2023-04-25T04:07:45;6.82;;;2.38;;
7969;SDS011;4030;52.362;9.206;2023-04-25T04:10:11;6.88;;;2.22;;
7969;SDS011;4030;52.362;9.206;2023-04-25T04:12:37;6.20;;;2.58;;
7969;SDS011;4030;52.362;9.206;2023-04-25T04:15:04;8.88;;;2.65;;
7969;SDS011;4030;52.362;9.206;2023-04-25T04:17:30;8.27;;;2.72;;
7969;SDS011;4030;52.362;9.206;2023-04-25T04:19:56;6.13;;;2.45;;
7969;SDS011;4030;52.362;9.206;2023-04-25T04:22:22;6.65;;;2.28;;
7969;SDS011;4030;52.362;9.206;2023-04-25T04:24:49;6.43;;;2.67;;
7969;SDS011;4030;52.362;9.206;2023-04-25T04:27:15;5.28;;;2.33;;
7969;SDS011;4030;52.362;9.206;2023-04-25T04:29:42;6.15;;;2.70;;
7969;SDS011;4030;52.362;9.206;2023-04-25T04:32:08;6.90;;;2.72;;
7969;SDS011;4030;52.362;9.206;2023-04-25T04:34:34;6.15;;;2.67;;
7969;SDS011;4030;52.362;9.206;2023-04-25T04:37:00;5.72;;;2.03;;
7969;SDS011;4030;52.362;9.206;2023-04-25T04:39:26;8.52;;;2.60;;
7969;SDS011;4030;52.362;9.206;2023-04-25T04:41:52;6.85;;;2.70;;
7969;SDS011;4030;52.362;9.206;2023-04-25T04:44:18;8.32;;;2.75;;
7969;SDS011;4030;52.362;9.206;2023-04-25T04:46:44;7.85;;;2.58;;
7969;SDS011;4030;52.362;9.206;2023-04-25T04:49:11;6.93;;;2.50;;
7969;SDS011;4030;52.362;9.206;2023-04-25T04:51:38;6.40;;;2.65;;
7969;SDS011;4030;52.362;9.206;2023-04-25T04:54:06;9.30;;;2.97;;
7969;SDS011;4030;52.362;9.206;2023-04-25T04:56:31;8.82;;;2.92;;
7969;SDS011;4030;52.362;9.206;2023-04-25T04:58:58;4.97;;;2.17;;
7969;SDS011;4030;52.362;9.206;2023-04-25T05:01:24;5.88;;;2.78;;
7969;SDS011;4030;52.362;9.206;2023-04-25T05:03:51;7.00;;;2.78;;
7969;SDS011;4030;52.362;9.206;2023-04-25T05:06:20;6.78;;;2.67;;
7969;SDS011;4030;52.362;9.206;2023-04-25T05:08:46;7.50;;;2.67;;
7969;SDS011;4030;52.362;9.206;2023-04-25T05:11:12;6.00;;;2.80;;
7969;SDS011;4030;52.362;9.206;2023-04-25T05:13:37;6.78;;;2.53;;
7969;SDS011;4030;52.362;9.206;2023-04-25T05:16:03;8.95;;;2.80;;
7969;SDS011;4030;52.362;9.206;2023-04-25T05:18:29;6.35;;;2.85;;
7969;SDS011;4030;52.362;9.206;2023-04-25T05:20:55;7.28;;;2.72;;
7969;SDS011;4030;52.362;9.206;2023-04-25T05:23:21;7.90;;;2.72;;
7969;SDS011;4030;52.362;9.206;2023-04-25T05:25:47;4.88;;;2.30;;
7969;SDS011;4030;52.362;9.206;2023-04-25T05:28:13;7.32;;;2.70;;
7969;SDS011;4030;52.362;9.206;2023-04-25T05:30:39;6.88;;;2.70;;
7969;SDS011;4030;52.362;9.206;2023-04-25T05:33:05;5.72;;;2.63;;
7969;SDS011;4030;52.362;9.206;2023-04-25T05:35:31;10.20;;;2.67;;
7969;SDS011;4030;52.362;9.206;2023-04-25T05:37:57;8.13;;;2.83;;
7969;SDS011;4030;52.362;9.206;2023-04-25T05:40:23;5.13;;;2.50;;
7969;SDS011;4030;52.362;9.206;2023-04-25T05:42:49;7.13;;;2.53;;
7969;SDS011;4030;52.362;9.206;2023-04-25T05:45:15;6.30;;;2.30;;
7969;SDS011;4030;52.362;9.206;2023-04-25T05:47:42;7.10;;;2.30;;
7969;SDS011;4030;52.362;9.206;2023-04-25T05:50:08;6.53;;;2.63;;
7969;SDS011;4030;52.362;9.206;2023-04-25T05:52:34;6.65;;;2.90;;
7969;SDS011;4030;52.362;9.206;2023-04-25T05:54:59;6.50;;;2.85;;
7969;SDS011;4030;52.362;9.206;2023-04-25T05:57:26;6.10;;;2.85;;
7969;SDS011;4030;52.362;9.206;2023-04-25T05:59:52;7.93;;;2.63;;
7969;SDS011;4030;52.362;9.206;2023-04-25T06:02:19;9.02;;;2.95;;
7969;SDS011;4030;52.362;9.206;2023-04-25T06:04:46;6.57;;;2.58;;
7969;SDS011;4030;52.362;9.206;2023-04-25T06:07:14;6.90;;;2.60;;
7969;SDS011;4030;52.362;9.206;2023-04-25T06:09:40;5.80;;;2.47;;
7969;SDS011;4030;52.362;9.206;2023-04-25T06:12:06;7.82;;;2.60;;
7969;SDS011;4030;52.362;9.206;2023-04-25T06:14:35;6.05;;;2.15;;
7969;SDS011;4030;52.362;9.206;2023-04-25T06:17:02;8.90;;;3.17;;
7969;SDS011;4030;52.362;9.206;2023-04-25T06:19:35;8.75;;;2.50;;
7969;SDS011;4030;52.362;9.206;2023-04-25T06:22:01;6.93;;;2.55;;
7969;SDS011;4030;52.362;9.206;2023-04-25T06:24:27;5.95;;;2.45;;
7969;SDS011;4030;52.362;9.206;2023-04-25T06:26:53;7.15;;;2.63;;
7969;SDS011;4030;52.362;9.206;2023-04-25T06:29:19;9.73;;;2.85;;
7969;SDS011;4030;52.362;9.206;2023-04-25T06:31:45;7.93;;;2.85;;
7969;SDS011;4030;52.362;9.206;2023-04-25T06:34:11;6.30;;;2.53;;
7969;SDS011;4030;52.362;9.206;2023-04-25T06:36:37;6.15;;;2.45;;
7969;SDS011;4030;52.362;9.206;2023-04-25T06:39:03;4.72;;;2.25;;
7969;SDS011;4030;52.362;9.206;2023-04-25T06:41:29;5.47;;;2.28;;
7969;SDS011;4030;52.362;9.206;2023-04-25T06:43:55;7.45;;;2.50;;
7969;SDS011;4030;52.362;9.206;2023-04-25T06:46:21;8.55;;;2.67;;
7969;SDS011;4030;52.362;9.206;2023-04-25T06:48:47;7.25;;;2.42;;
7969;SDS011;4030;52.362;9.206;2023-04-25T06:51:13;7.68;;;2.45;;
7969;SDS011;4030;52.362;9.206;2023-04-25T06:53:39;7.18;;;2.47;;
7969;SDS011;4030;52.362;9.206;2023-04-25T06:56:05;5.28;;;2.40;;
7969;SDS011;4030;52.362;9.206;2023-04-25T06:58:31;6.78;;;2.20;;
7969;SDS011;4030;52.362;9.206;2023-04-25T07:00:57;7.18;;;2.38;;
7969;SDS011;4030;52.362;9.206;2023-04-25T07:03:23;7.38;;;2.50;;
7969;SDS011;4030;52.362;9.206;2023-04-25T07:05:48;7.00;;;2.70;;
7969;SDS011;4030;52.362;9.206;2023-04-25T07:08:15;7.75;;;2.10;;
7969;SDS011;4030;52.362;9.206;2023-04-25T07:10:40;7.35;;;2.50;;
7969;SDS011;4030;52.362;9.206;2023-04-25T07:13:06;8.50;;;2.22;;
7969;SDS011;4030;52.362;9.206;2023-04-25T07:15:32;5.90;;;2.33;;
7969;SDS011;4030;52.362;9.206;2023-04-25T07:17:58;6.75;;;2.10;;
7969;SDS011;4030;52.362;9.206;2023-04-25T07:20:24;3.70;;;2.10;;
7969;SDS011;4030;52.362;9.206;2023-04-25T07:22:50;6.38;;;2.40;;
7969;SDS011;4030;52.362;9.206;2023-04-25T07:25:16;5.25;;;2.15;;
7969;SDS011;4030;52.362;9.206;2023-04-25T07:27:42;5.60;;;2.40;;
7969;SDS011;4030;52.362;9.206;2023-04-25T07:30:08;6.10;;;2.00;;
7969;SDS011;4030;52.362;9.206;2023-04-25T07:32:34;5.03;;;1.90;;
7969;SDS011;4030;52.362;9.206;2023-04-25T07:35:00;5.00;;;2.00;;
7969;SDS011;4030;52.362;9.206;2023-04-25T07:37:26;4.32;;;1.92;;
7969;SDS011;4030;52.362;9.206;2023-04-25T07:39:52;5.18;;;2.10;;
7969;SDS011;4030;52.362;9.206;2023-04-25T07:42:19;4.18;;;2.00;;
7969;SDS011;4030;52.362;9.206;2023-04-25T07:44:46;4.05;;;1.98;;
7969;SDS011;4030;52.362;9.206;2023-04-25T07:47:12;4.45;;;1.92;;
7969;SDS011;4030;52.362;9.206;2023-04-25T07:49:38;5.68;;;2.30;;
7969;SDS011;4030;52.362;9.206;2023-04-25T07:52:05;5.57;;;1.90;;
7969;SDS011;4030;52.362;9.206;2023-04-25T07:54:31;4.70;;;1.95;;
7969;SDS011;4030;52.362;9.206;2023-04-25T07:56:57;5.53;;;2.08;;
7969;SDS011;4030;52.362;9.206;2023-04-25T07:59:23;4.15;;;1.70;;
7969;SDS011;4030;52.362;9.206;2023-04-25T08:01:49;4.53;;;2.03;;
7969;SDS011;4030;52.362;9.206;2023-04-25T08:04:15;5.35;;;2.03;;
7969;SDS011;4030;52.362;9.206;2023-04-25T08:06:41;5.63;;;2.00;;
7969;SDS011;4030;52.362;9.206;2023-04-25T08:09:07;5.30;;;1.98;;
7969;SDS011;4030;52.362;9.206;2023-04-25T08:11:34;5.05;;;2.00;;
7969;SDS011;4030;52.362;9.206;2023-04-25T08:14:00;5.10;;;2.08;;
7969;SDS011;4030;52.362;9.206;2023-04-25T08:16:26;4.85;;;1.92;;
7969;SDS011;4030;52.362;9.206;2023-04-25T08:18:52;4.43;;;1.95;;
7969;SDS011;4030;52.362;9.206;2023-04-25T08:21:18;4.82;;;2.08;;
7969;SDS011;4030;52.362;9.206;2023-04-25T08:23:45;5.28;;;2.10;;
7969;SDS011;4030;52.362;9.206;2023-04-25T08:26:10;6.15;;;2.03;;
7969;SDS011;4030;52.362;9.206;2023-04-25T08:28:36;5.93;;;2.30;;
7969;SDS011;4030;52.362;9.206;2023-04-25T08:31:02;4.35;;;1.80;;
7969;SDS011;4030;52.362;9.206;2023-04-25T08:33:28;6.10;;;1.80;;
7969;SDS011;4030;52.362;9.206;2023-04-25T08:35:55;6.40;;;1.95;;
7969;SDS011;4030;52.362;9.206;2023-04-25T08:38:21;4.57;;;1.70;;
7969;SDS011;4030;52.362;9.206;2023-04-25T08:40:48;4.13;;;1.83;;
7969;SDS011;4030;52.362;9.206;2023-04-25T08:43:17;4.15;;;1.80;;
7969;SDS011;4030;52.362;9.206;2023-04-25T08:45:45;4.72;;;1.80;;
7969;SDS011;4030;52.362;9.206;2023-04-25T08:48:12;4.63;;;1.92;;
7969;SDS011;4030;52.362;9.206;2023-04-25T08:50:50;6.63;;;1.98;;
7969;SDS011;4030;52.362;9.206;2023-04-25T08:53:21;5.38;;;1.70;;
7969;SDS011;4030;52.362;9.206;2023-04-25T08:55:52;3.10;;;1.60;;
7969;SDS011;4030;52.362;9.206;2023-04-25T08:58:20;4.50;;;1.60;;
7969;SDS011;4030;52.362;9.206;2023-04-25T09:00:47;3.83;;;1.52;;
7969;SDS011;4030;52.362;9.206;2023-04-25T09:03:14;3.92;;;1.58;;
7969;SDS011;4030;52.362;9.206;2023-04-25T09:05:40;4.68;;;1.55;;
7969;SDS011;4030;52.362;9.206;2023-04-25T09:08:07;4.10;;;1.77;;
7969;SDS011;4030;52.362;9.206;2023-04-25T09:10:33;3.60;;;1.80;;
7969;SDS011;4030;52.362;9.206;2023-04-25T09:13:09;3.10;;;1.40;;
7969;SDS011;4030;52.362;9.206;2023-04-25T09:15:53;3.25;;;1.17;;
7969;SDS011;4030;52.362;9.206;2023-04-25T09:18:22;3.50;;;1.40;;
7969;SDS011;4030;52.362;9.206;2023-04-25T09:20:51;2.88;;;1.40;;
7969;SDS011;4030;52.362;9.206;2023-04-25T09:23:30;2.55;;;1.25;;
7969;SDS011;4030;52.362;9.206;2023-04-25T09:26:04;3.13;;;1.40;;
7969;SDS011;4030;52.362;9.206;2023-04-25T09:28:33;2.25;;;1.20;;
7969;SDS011;4030;52.362;9.206;2023-04-25T09:31:00;4.10;;;1.30;;
7969;SDS011;4030;52.362;9.206;2023-04-25T09:33:30;3.60;;;1.38;;
7969;SDS011;4030;52.362;9.206;2023-04-25T09:36:07;3.47;;;1.40;;
7969;SDS011;4030;52.362;9.206;2023-04-25T09:38:43;2.22;;;1.20;;
7969;SDS011;4030;52.362;9.206;2023-04-25T09:41:10;3.17;;;1.30;;
7969;SDS011;4030;52.362;9.206;2023-04-25T09:43:37;2.78;;;1.27;;
7969;SDS011;4030;52.362;9.206;2023-04-25T09:46:07;2.92;;;1.45;;
7969;SDS011;4030;52.362;9.206;2023-04-25T09:48:34;2.72;;;1.35;;
7969;SDS011;4030;52.362;9.206;2023-04-25T09:51:08;1.77;;;1.17;;
7969;SDS011;4030;52.362;9.206;2023-04-25T09:53:37;2.72;;;1.23;;
7969;SDS011;4030;52.362;9.206;2023-04-25T09:56:05;2.80;;;1.20;;
7969;SDS011;4030;52.362;9.206;2023-04-25T09:58:34;4.05;;;1.45;;
7969;SDS011;4030;52.362;9.206;2023-04-25T10:01:02;2.92;;;1.30;;
7969;SDS011;4030;52.362;9.206;2023-04-25T10:03:31;3.17;;;1.50;;
7969;SDS011;4030;52.362;9.206;2023-04-25T10:06:00;4.15;;;1.52;;
7969;SDS011;4030;52.362;9.206;2023-04-25T10:08:31;3.13;;;1.50;;
7969;SDS011;4030;52.362;9.206;2023-04-25T10:11:00;5.03;;;1.55;;
7969;SDS011;4030;52.362;9.206;2023-04-25T10:13:31;3.92;;;1.40;;
7969;SDS011;4030;52.362;9.206;2023-04-25T10:15:58;3.15;;;1.30;;
7969;SDS011;4030;52.362;9.206;2023-04-25T10:18:26;2.92;;;1.40;;
7969;SDS011;4030;52.362;9.206;2023-04-25T10:21:00;4.25;;;1.55;;
7969;SDS011;4030;52.362;9.206;2023-04-25T10:23:29;2.97;;;1.50;;
7969;SDS011;4030;52.362;9.206;2023-04-25T10:25:56;5.70;;;1.50;;
7969;SDS011;4030;52.362;9.206;2023-04-25T10:28:23;11.18;;;1.60;;
7969;SDS011;4030;52.362;9.206;2023-04-25T10:30:56;5.15;;;1.33;;
7969;SDS011;4030;52.362;9.206;2023-04-25T10:33:33;4.43;;;1.52;;
7969;SDS011;4030;52.362;9.206;2023-04-25T10:36:14;4.18;;;1.48;;
7969;SDS011;4030;52.362;9.206;2023-04-25T10:38:43;3.53;;;1.40;;
7969;SDS011;4030;52.362;9.206;2023-04-25T10:41:10;3.80;;;1.50;;
7969;SDS011;4030;52.362;9.206;2023-04-25T10:48:50;8.35;;;1.23;;
7969;SDS011;4030;52.362;9.206;2023-04-25T10:54:03;3.35;;;1.50;;
7969;SDS011;4030;52.362;9.206;2023-04-25T10:56:38;3.38;;;1.25;;
7969;SDS011;4030;52.362;9.206;2023-04-25T11:01:42;4.35;;;1.50;;
7969;SDS011;4030;52.362;9.206;2023-04-25T11:04:22;3.45;;;1.30;;
7969;SDS011;4030;52.362;9.206;2023-04-25T11:09:38;3.83;;;1.40;;
7969;SDS011;4030;52.362;9.206;2023-04-25T11:12:07;2.80;;;1.20;;
7969;SDS011;4030;52.362;9.206;2023-04-25T11:14:34;2.35;;;1.27;;
7969;SDS011;4030;52.362;9.206;2023-04-25T11:17:00;3.00;;;1.10;;
7969;SDS011;4030;52.362;9.206;2023-04-25T11:19:27;1.60;;;1.00;;
7969;SDS011;4030;52.362;9.206;2023-04-25T11:21:57;3.55;;;1.25;;
7969;SDS011;4030;52.362;9.206;2023-04-25T11:24:28;2.72;;;1.38;;
7969;SDS011;4030;52.362;9.206;2023-04-25T11:26:54;3.35;;;1.20;;
7969;SDS011;4030;52.362;9.206;2023-04-25T11:29:22;3.08;;;1.13;;
7969;SDS011;4030;52.362;9.206;2023-04-25T11:31:48;3.85;;;1.10;;
7969;SDS011;4030;52.362;9.206;2023-04-25T11:34:18;4.22;;;1.30;;
7969;SDS011;4030;52.362;9.206;2023-04-25T11:36:44;3.10;;;0.98;;
7969;SDS011;4030;52.362;9.206;2023-04-25T11:39:11;3.28;;;1.13;;
7969;SDS011;4030;52.362;9.206;2023-04-25T11:41:37;1.88;;;0.88;;
7969;SDS011;4030;52.362;9.206;2023-04-25T11:44:03;2.88;;;1.20;;
7969;SDS011;4030;52.362;9.206;2023-04-25T11:46:30;2.72;;;1.05;;
7969;SDS011;4030;52.362;9.206;2023-04-25T11:48:59;2.28;;;1.08;;
7969;SDS011;4030;52.362;9.206;2023-04-25T11:51:25;3.28;;;0.90;;
7969;SDS011;4030;52.362;9.206;2023-04-25T11:53:51;7.05;;;1.10;;
7969;SDS011;4030;52.362;9.206;2023-04-25T11:56:17;3.22;;;1.15;;
7969;SDS011;4030;52.362;9.206;2023-04-25T11:58:56;2.05;;;0.80;;
7969;SDS011;4030;52.362;9.206;2023-04-25T12:01:29;2.85;;;1.00;;
7969;SDS011;4030;52.362;9.206;2023-04-25T12:04:10;3.40;;;0.98;;
7969;SDS011;4030;52.362;9.206;2023-04-25T12:06:47;3.53;;;0.93;;
7969;SDS011;4030;52.362;9.206;2023-04-25T12:09:19;2.80;;;0.90;;
7969;SDS011;4030;52.362;9.206;2023-04-25T12:11:53;3.42;;;1.20;;
7969;SDS011;4030;52.362;9.206;2023-04-25T12:14:27;3.45;;;1.17;;
7969;SDS011;4030;52.362;9.206;2023-04-25T12:17:01;4.63;;;1.40;;
7969;SDS011;4030;52.362;9.206;2023-04-25T12:19:32;4.03;;;1.30;;
7969;SDS011;4030;52.362;9.206;2023-04-25T12:22:01;5.55;;;1.30;;
7969;SDS011;4030;52.362;9.206;2023-04-25T12:24:33;1.90;;;1.05;;
7969;SDS011;4030;52.362;9.206;2023-04-25T12:27:00;2.13;;;1.10;;
7969;SDS011;4030;52.362;9.206;2023-04-25T12:29:29;3.53;;;1.52;;
7969;SDS011;4030;52.362;9.206;2023-04-25T12:31:57;3.65;;;1.20;;
7969;SDS011;4030;52.362;9.206;2023-04-25T12:34:23;4.93;;;1.30;;
7969;SDS011;4030;52.362;9.206;2023-04-25T12:36:50;1.95;;;0.98;;
7969;SDS011;4030;52.362;9.206;2023-04-25T12:39:21;1.92;;;1.10;;
7969;SDS011;4030;52.362;9.206;2023-04-25T12:41:49;2.47;;;1.00;;
7969;SDS011;4030;52.362;9.206;2023-04-25T12:44:17;2.53;;;1.10;;
7969;SDS011;4030;52.362;9.206;2023-04-25T12:46:43;4.85;;;1.10;;
7969;SDS011;4030;52.362;9.206;2023-04-25T12:49:08;1.98;;;0.95;;
7969;SDS011;4030;52.362;9.206;2023-04-25T12:51:35;2.35;;;1.20;;
7969;SDS011;4030;52.362;9.206;2023-04-25T12:54:01;2.10;;;1.00;;
7969;SDS011;4030;52.362;9.206;2023-04-25T12:56:29;2.05;;;0.98;;
7969;SDS011;4030;52.362;9.206;2023-04-25T12:58:55;3.45;;;1.00;;
7969;SDS011;4030;52.362;9.206;2023-04-25T13:01:22;3.50;;;0.98;;
7969;SDS011;4030;52.362;9.206;2023-04-25T13:03:48;2.05;;;1.00;;
7969;SDS011;4030;52.362;9.206;2023-04-25T13:06:15;1.88;;;1.00;;
7969;SDS011;4030;52.362;9.206;2023-04-25T13:08:41;2.22;;;1.00;;
7969;SDS011;4030;52.362;9.206;2023-04-25T13:11:07;1.92;;;0.95;;
7969;SDS011;4030;52.362;9.206;2023-04-25T13:13:33;2.50;;;0.80;;
7969;SDS011;4030;52.362;9.206;2023-04-25T13:16:00;4.22;;;1.10;;
7969;SDS011;4030;52.362;9.206;2023-04-25T13:18:27;1.95;;;0.93;;
7969;SDS011;4030;52.362;9.206;2023-04-25T13:20:53;1.30;;;0.80;;
7969;SDS011;4030;52.362;9.206;2023-04-25T13:23:19;1.80;;;0.80;;
7969;SDS011;4030;52.362;9.206;2023-04-25T13:25:45;2.38;;;1.00;;
7969;SDS011;4030;52.362;9.206;2023-04-25T13:28:11;1.33;;;0.80;;
7969;SDS011;4030;52.362;9.206;2023-04-25T13:30:38;1.98;;;0.90;;
7969;SDS011;4030;52.362;9.206;2023-04-25T13:33:04;1.92;;;1.08;;
7969;SDS011;4030;52.362;9.206;2023-04-25T13:35:31;3.42;;;0.95;;
7969;SDS011;4030;52.362;9.206;2023-04-25T13:37:59;1.08;;;0.80;;
7969;SDS011;4030;52.362;9.206;2023-04-25T13:40:25;3.72;;;1.13;;
7969;SDS011;4030;52.362;9.206;2023-04-25T13:42:51;3.03;;;0.85;;
7969;SDS011;4030;52.362;9.206;2023-04-25T13:45:18;3.08;;;1.15;;
7969;SDS011;4030;52.362;9.206;2023-04-25T13:47:44;2.67;;;1.08;;
7969;SDS011;4030;52.362;9.206;2023-04-25T13:50:10;1.35;;;0.85;;
7969;SDS011;4030;52.362;9.206;2023-04-25T13:52:36;1.75;;;0.85;;
7969;SDS011;4030;52.362;9.206;2023-04-25T13:55:02;1.92;;;0.88;;
7969;SDS011;4030;52.362;9.206;2023-04-25T13:57:30;2.63;;;0.88;;
7969;SDS011;4030;52.362;9.206;2023-04-25T13:59:55;2.17;;;0.70;;
7969;SDS011;4030;52.362;9.206;2023-04-25T14:02:21;1.85;;;0.80;;
7969;SDS011;4030;52.362;9.206;2023-04-25T14:04:47;2.70;;;1.00;;
7969;SDS011;4030;52.362;9.206;2023-04-25T14:07:13;2.80;;;1.13;;
7969;SDS011;4030;52.362;9.206;2023-04-25T14:09:42;1.48;;;0.90;;
7969;SDS011;4030;52.362;9.206;2023-04-25T14:12:08;2.38;;;0.98;;
7969;SDS011;4030;52.362;9.206;2023-04-25T14:14:34;1.35;;;0.93;;
7969;SDS011;4030;52.362;9.206;2023-04-25T14:17:00;2.47;;;0.93;;
7969;SDS011;4030;52.362;9.206;2023-04-25T14:19:26;2.20;;;0.95;;
7969;SDS011;4030;52.362;9.206;2023-04-25T14:21:52;2.10;;;0.90;;
7969;SDS011;4030;52.362;9.206;2023-04-25T14:24:18;1.88;;;0.90;;
7969;SDS011;4030;52.362;9.206;2023-04-25T14:26:43;1.25;;;0.60;;
7969;SDS011;4030;52.362;9.206;2023-04-25T14:29:09;2.83;;;0.80;;
7969;SDS011;4030;52.362;9.206;2023-04-25T14:31:36;2.50;;;1.02;;
7969;SDS011;4030;52.362;9.206;2023-04-25T14:34:06;2.28;;;1.08;;
7969;SDS011;4030;52.362;9.206;2023-04-25T14:36:32;1.80;;;0.90;;
7969;SDS011;4030;52.362;9.206;2023-04-25T14:38:58;2.17;;;1.00;;
7969;SDS011;4030;52.362;9.206;2023-04-25T14:41:25;2.70;;;1.00;;
7969;SDS011;4030;52.362;9.206;2023-04-25T14:43:51;1.67;;;1.00;;
7969;SDS011;4030;52.362;9.206;2023-04-25T14:46:18;3.17;;;0.95;;
7969;SDS011;4030;52.362;9.206;2023-04-25T14:48:45;2.70;;;1.10;;
7969;SDS011;4030;52.362;9.206;2023-04-25T14:51:12;2.30;;;1.00;;
7969;SDS011;4030;52.362;9.206;2023-04-25T14:53:37;2.95;;;0.90;;
7969;SDS011;4030;52.362;9.206;2023-04-25T14:56:04;2.75;;;0.98;;
7969;SDS011;4030;52.362;9.206;2023-04-25T14:58:30;3.13;;;1.02;;
7969;SDS011;4030;52.362;9.206;2023-04-25T15:00:56;3.00;;;1.20;;
7969;SDS011;4030;52.362;9.206;2023-04-25T15:03:22;2.67;;;1.20;;
7969;SDS011;4030;52.362;9.206;2023-04-25T15:05:47;2.30;;;1.15;;
7969;SDS011;4030;52.362;9.206;2023-04-25T15:08:13;3.17;;;1.17;;
7969;SDS011;4030;52.362;9.206;2023-04-25T15:10:39;1.88;;;0.90;;
7969;SDS011;4030;52.362;9.206;2023-04-25T15:13:04;2.22;;;1.00;;
7969;SDS011;4030;52.362;9.206;2023-04-25T15:15:30;3.38;;;1.20;;
7969;SDS011;4030;52.362;9.206;2023-04-25T15:17:56;2.78;;;1.20;;
7969;SDS011;4030;52.362;9.206;2023-04-25T15:20:22;3.30;;;1.10;;
7969;SDS011;4030;52.362;9.206;2023-04-25T15:22:48;2.28;;;1.00;;
7969;SDS011;4030;52.362;9.206;2023-04-25T15:25:14;3.15;;;1.35;;
7969;SDS011;4030;52.362;9.206;2023-04-25T15:27:44;2.35;;;1.20;;